Nora Springs, Iowa
Current Conditions -  °F | °C
As of 6:53 PM on Monday 26 Jan 2015 (Local Time) from KMCW Reporting Station
Few Clouds Few Clouds  
Wind Chill: 28°   Ceiling: Unl
Heat Index: 37°   Visibility: 10mi
Dew Point: 32°   Wind: 16mph
Humidity: 82%   Direction: 320°NW
Pressure: 29.89"   Gusts: NA
Location:  43.14°N, 93°W
Report Text: KMCW 270053Z AUTO 32014KT 10SM FEW030 03/00 A2989 RMK AO2 SLP130 T00280000
Loading
Personal Weather Stations






























Interactive Weather Map New forecast layout! Learn more

10-Day Weather Forecast

Advertisements
Track Severe Weather on mobile